sensor_id;sensor_type;location;lat;lon;timestamp;temperature;humidity
85036;DHT22;75357;49.780;9.448;2024-03-02T00:02:07;4.20;88.10
85036;DHT22;75357;49.780;9.448;2024-03-02T00:04:38;4.20;88.10
85036;DHT22;75357;49.780;9.448;2024-03-02T00:07:07;4.20;88.10
85036;DHT22;75357;49.780;9.448;2024-03-02T00:09:35;4.20;88.30
85036;DHT22;75357;49.780;9.448;2024-03-02T00:12:07;4.20;88.40
85036;DHT22;75357;49.780;9.448;2024-03-02T00:14:39;4.30;88.40
85036;DHT22;75357;49.780;9.448;2024-03-02T00:17:17;4.30;88.20
85036;DHT22;75357;49.780;9.448;2024-03-02T00:19:49;4.30;88.00
85036;DHT22;75357;49.780;9.448;2024-03-02T00:22:17;4.30;87.60
85036;DHT22;75357;49.780;9.448;2024-03-02T00:24:46;4.30;87.80
85036;DHT22;75357;49.780;9.448;2024-03-02T00:27:22;4.30;87.90
85036;DHT22;75357;49.780;9.448;2024-03-02T00:29:52;4.30;88.00
85036;DHT22;75357;49.780;9.448;2024-03-02T00:32:20;4.30;87.80
85036;DHT22;75357;49.780;9.448;2024-03-02T00:34:48;4.30;87.90
85036;DHT22;75357;49.780;9.448;2024-03-02T00:37:17;4.30;88.10
85036;DHT22;75357;49.780;9.448;2024-03-02T00:39:49;4.30;88.00
85036;DHT22;75357;49.780;9.448;2024-03-02T00:42:19;4.30;87.60
85036;DHT22;75357;49.780;9.448;2024-03-02T00:44:49;4.30;87.90
85036;DHT22;75357;49.780;9.448;2024-03-02T00:47:19;4.20;87.90
85036;DHT22;75357;49.780;9.448;2024-03-02T00:49:47;4.20;87.90
85036;DHT22;75357;49.780;9.448;2024-03-02T00:52:18;4.20;88.20
85036;DHT22;75357;49.780;9.448;2024-03-02T00:54:46;4.30;88.20
85036;DHT22;75357;49.780;9.448;2024-03-02T00:57:15;4.20;88.20
85036;DHT22;75357;49.780;9.448;2024-03-02T00:59:45;4.10;88.60
85036;DHT22;75357;49.780;9.448;2024-03-02T01:02:14;4.10;89.10
85036;DHT22;75357;49.780;9.448;2024-03-02T01:04:43;4.10;89.10
85036;DHT22;75357;49.780;9.448;2024-03-02T01:07:12;4.10;88.90
85036;DHT22;75357;49.780;9.448;2024-03-02T01:09:40;4.10;88.60
85036;DHT22;75357;49.780;9.448;2024-03-02T01:12:08;4.10;88.90
85036;DHT22;75357;49.780;9.448;2024-03-02T01:14:37;4.10;88.60
85036;DHT22;75357;49.780;9.448;2024-03-02T01:17:08;4.10;88.60
85036;DHT22;75357;49.780;9.448;2024-03-02T01:19:41;4.00;88.40
85036;DHT22;75357;49.780;9.448;2024-03-02T01:22:10;4.10;88.60
85036;DHT22;75357;49.780;9.448;2024-03-02T01:24:39;4.00;88.90
85036;DHT22;75357;49.780;9.448;2024-03-02T01:27:08;4.00;89.10
85036;DHT22;75357;49.780;9.448;2024-03-02T01:29:36;4.00;89.20
85036;DHT22;75357;49.780;9.448;2024-03-02T01:32:05;3.90;89.10
85036;DHT22;75357;49.780;9.448;2024-03-02T01:34:38;4.00;89.20
85036;DHT22;75357;49.780;9.448;2024-03-02T01:37:07;3.90;89.10
85036;DHT22;75357;49.780;9.448;2024-03-02T01:39:37;3.90;89.00
85036;DHT22;75357;49.780;9.448;2024-03-02T01:42:07;3.90;89.00
85036;DHT22;75357;49.780;9.448;2024-03-02T01:44:39;3.90;88.80
85036;DHT22;75357;49.780;9.448;2024-03-02T01:47:08;3.90;88.70
85036;DHT22;75357;49.780;9.448;2024-03-02T01:49:38;3.80;88.70
85036;DHT22;75357;49.780;9.448;2024-03-02T01:52:10;3.70;88.90
85036;DHT22;75357;49.780;9.448;2024-03-02T01:54:39;3.80;89.20
85036;DHT22;75357;49.780;9.448;2024-03-02T01:57:08;3.80;88.50
85036;DHT22;75357;49.780;9.448;2024-03-02T01:59:36;3.70;88.60
85036;DHT22;75357;49.780;9.448;2024-03-02T02:02:05;3.60;88.90
85036;DHT22;75357;49.780;9.448;2024-03-02T02:04:34;3.50;89.10
85036;DHT22;75357;49.780;9.448;2024-03-02T02:07:05;3.50;89.30
85036;DHT22;75357;49.780;9.448;2024-03-02T02:09:35;3.50;89.30
85036;DHT22;75357;49.780;9.448;2024-03-02T02:12:04;3.50;89.20
85036;DHT22;75357;49.780;9.448;2024-03-02T02:14:34;3.50;89.60
85036;DHT22;75357;49.780;9.448;2024-03-02T02:17:05;3.50;89.80
85036;DHT22;75357;49.780;9.448;2024-03-02T02:19:40;3.40;89.80
85036;DHT22;75357;49.780;9.448;2024-03-02T02:22:11;3.50;89.80
85036;DHT22;75357;49.780;9.448;2024-03-02T02:24:40;3.40;89.10
85036;DHT22;75357;49.780;9.448;2024-03-02T02:27:09;3.50;88.90
85036;DHT22;75357;49.780;9.448;2024-03-02T02:29:41;3.40;89.00
85036;DHT22;75357;49.780;9.448;2024-03-02T02:32:10;3.40;89.00
85036;DHT22;75357;49.780;9.448;2024-03-02T02:34:39;3.20;89.30
85036;DHT22;75357;49.780;9.448;2024-03-02T02:37:08;3.20;89.50
85036;DHT22;75357;49.780;9.448;2024-03-02T02:39:37;3.20;89.70
85036;DHT22;75357;49.780;9.448;2024-03-02T02:42:06;3.20;89.80
85036;DHT22;75357;49.780;9.448;2024-03-02T02:44:35;3.20;89.80
85036;DHT22;75357;49.780;9.448;2024-03-02T02:47:04;3.20;90.00
85036;DHT22;75357;49.780;9.448;2024-03-02T02:49:32;3.10;90.10
85036;DHT22;75357;49.780;9.448;2024-03-02T02:52:01;3.00;90.10
85036;DHT22;75357;49.780;9.448;2024-03-02T02:54:30;3.00;90.30
85036;DHT22;75357;49.780;9.448;2024-03-02T02:57:01;3.00;90.50
85036;DHT22;75357;49.780;9.448;2024-03-02T02:59:30;3.00;90.50
85036;DHT22;75357;49.780;9.448;2024-03-02T03:01:58;3.00;90.30
85036;DHT22;75357;49.780;9.448;2024-03-02T03:04:28;3.10;90.30
85036;DHT22;75357;49.780;9.448;2024-03-02T03:06:56;3.00;90.10
85036;DHT22;75357;49.780;9.448;2024-03-02T03:09:24;3.00;90.30
85036;DHT22;75357;49.780;9.448;2024-03-02T03:11:52;2.90;90.40
85036;DHT22;75357;49.780;9.448;2024-03-02T03:14:22;2.90;90.40
85036;DHT22;75357;49.780;9.448;2024-03-02T03:16:50;3.00;90.30
85036;DHT22;75357;49.780;9.448;2024-03-02T03:19:18;2.90;90.10
85036;DHT22;75357;49.780;9.448;2024-03-02T03:21:46;2.80;90.10
85036;DHT22;75357;49.780;9.448;2024-03-02T03:24:14;2.70;90.10
85036;DHT22;75357;49.780;9.448;2024-03-02T03:26:42;2.70;90.20
85036;DHT22;75357;49.780;9.448;2024-03-02T03:29:10;2.70;90.20
85036;DHT22;75357;49.780;9.448;2024-03-02T03:31:40;2.70;90.20
85036;DHT22;75357;49.780;9.448;2024-03-02T03:34:08;2.60;90.20
85036;DHT22;75357;49.780;9.448;2024-03-02T03:36:36;2.60;90.30
85036;DHT22;75357;49.780;9.448;2024-03-02T03:39:05;2.70;90.10
85036;DHT22;75357;49.780;9.448;2024-03-02T03:41:33;2.70;89.90
85036;DHT22;75357;49.780;9.448;2024-03-02T03:44:01;2.70;90.10
85036;DHT22;75357;49.780;9.448;2024-03-02T03:46:30;2.80;90.30
85036;DHT22;75357;49.780;9.448;2024-03-02T03:48:59;2.80;90.10
85036;DHT22;75357;49.780;9.448;2024-03-02T03:51:28;2.90;90.10
85036;DHT22;75357;49.780;9.448;2024-03-02T03:53:57;2.90;89.90
85036;DHT22;75357;49.780;9.448;2024-03-02T03:56:25;2.90;90.00
85036;DHT22;75357;49.780;9.448;2024-03-02T03:58:53;3.00;89.80
85036;DHT22;75357;49.780;9.448;2024-03-02T04:01:21;3.00;89.60
85036;DHT22;75357;49.780;9.448;2024-03-02T04:03:50;3.00;89.60
85036;DHT22;75357;49.780;9.448;2024-03-02T04:06:19;3.10;90.00
85036;DHT22;75357;49.780;9.448;2024-03-02T04:08:47;3.10;90.10
85036;DHT22;75357;49.780;9.448;2024-03-02T04:11:15;3.10;90.00
85036;DHT22;75357;49.780;9.448;2024-03-02T04:13:44;3.20;89.50
85036;DHT22;75357;49.780;9.448;2024-03-02T04:16:12;3.20;89.20
85036;DHT22;75357;49.780;9.448;2024-03-02T04:18:40;3.20;89.00
85036;DHT22;75357;49.780;9.448;2024-03-02T04:21:08;3.30;89.10
85036;DHT22;75357;49.780;9.448;2024-03-02T04:23:38;3.40;89.30
85036;DHT22;75357;49.780;9.448;2024-03-02T04:26:06;3.40;89.30
85036;DHT22;75357;49.780;9.448;2024-03-02T04:28:34;3.50;89.40
85036;DHT22;75357;49.780;9.448;2024-03-02T04:31:03;3.50;89.20
85036;DHT22;75357;49.780;9.448;2024-03-02T04:33:31;3.70;89.40
85036;DHT22;75357;49.780;9.448;2024-03-02T04:35:59;3.70;89.30
85036;DHT22;75357;49.780;9.448;2024-03-02T04:38:27;3.70;89.20
85036;DHT22;75357;49.780;9.448;2024-03-02T04:40:58;3.80;89.30
85036;DHT22;75357;49.780;9.448;2024-03-02T04:43:26;3.90;89.10
85036;DHT22;75357;49.780;9.448;2024-03-02T04:45:54;4.00;89.10
85036;DHT22;75357;49.780;9.448;2024-03-02T04:48:23;4.00;88.90
85036;DHT22;75357;49.780;9.448;2024-03-02T04:50:51;4.10;88.70
85036;DHT22;75357;49.780;9.448;2024-03-02T04:53:19;4.10;88.40
85036;DHT22;75357;49.780;9.448;2024-03-02T04:55:47;4.20;88.40
85036;DHT22;75357;49.780;9.448;2024-03-02T04:58:34;4.10;88.40
85036;DHT22;75357;49.780;9.448;2024-03-02T05:01:03;4.10;88.20
85036;DHT22;75357;49.780;9.448;2024-03-02T05:03:31;4.10;88.40
85036;DHT22;75357;49.780;9.448;2024-03-02T05:06:02;4.20;88.60
85036;DHT22;75357;49.780;9.448;2024-03-02T05:08:30;4.20;88.50
85036;DHT22;75357;49.780;9.448;2024-03-02T05:10:58;4.20;88.60
85036;DHT22;75357;49.780;9.448;2024-03-02T05:13:47;4.30;88.90
85036;DHT22;75357;49.780;9.448;2024-03-02T05:16:16;4.30;89.20
85036;DHT22;75357;49.780;9.448;2024-03-02T05:18:44;4.30;89.30
85036;DHT22;75357;49.780;9.448;2024-03-02T05:21:12;4.30;89.20
85036;DHT22;75357;49.780;9.448;2024-03-02T05:23:40;4.30;89.10
85036;DHT22;75357;49.780;9.448;2024-03-02T05:26:08;4.30;89.30
85036;DHT22;75357;49.780;9.448;2024-03-02T05:28:39;4.40;89.30
85036;DHT22;75357;49.780;9.448;2024-03-02T05:31:10;4.40;89.20
85036;DHT22;75357;49.780;9.448;2024-03-02T05:33:38;4.30;89.20
85036;DHT22;75357;49.780;9.448;2024-03-02T05:36:07;4.30;89.20
85036;DHT22;75357;49.780;9.448;2024-03-02T05:38:35;4.30;89.40
85036;DHT22;75357;49.780;9.448;2024-03-02T05:41:03;4.40;89.60
85036;DHT22;75357;49.780;9.448;2024-03-02T05:43:31;4.40;89.40
85036;DHT22;75357;49.780;9.448;2024-03-02T05:46:00;4.40;89.30
85036;DHT22;75357;49.780;9.448;2024-03-02T05:48:29;4.40;89.50
85036;DHT22;75357;49.780;9.448;2024-03-02T05:50:57;4.40;89.50
85036;DHT22;75357;49.780;9.448;2024-03-02T05:53:26;4.40;89.50
85036;DHT22;75357;49.780;9.448;2024-03-02T05:55:54;4.50;89.40
85036;DHT22;75357;49.780;9.448;2024-03-02T05:58:26;4.40;89.40
85036;DHT22;75357;49.780;9.448;2024-03-02T06:01:04;4.40;89.70
85036;DHT22;75357;49.780;9.448;2024-03-02T06:03:34;4.40;90.00
85036;DHT22;75357;49.780;9.448;2024-03-02T06:06:03;4.40;89.40
85036;DHT22;75357;49.780;9.448;2024-03-02T06:08:32;4.40;89.80
85036;DHT22;75357;49.780;9.448;2024-03-02T06:11:00;4.50;90.00
85036;DHT22;75357;49.780;9.448;2024-03-02T06:13:28;4.50;90.00
85036;DHT22;75357;49.780;9.448;2024-03-02T06:15:57;4.50;89.50
85036;DHT22;75357;49.780;9.448;2024-03-02T06:18:25;4.50;89.50
85036;DHT22;75357;49.780;9.448;2024-03-02T06:20:55;4.40;89.40
85036;DHT22;75357;49.780;9.448;2024-03-02T06:23:23;4.40;89.50
85036;DHT22;75357;49.780;9.448;2024-03-02T06:25:52;4.40;89.50
85036;DHT22;75357;49.780;9.448;2024-03-02T06:28:20;4.40;89.50
85036;DHT22;75357;49.780;9.448;2024-03-02T06:30:48;4.40;89.60
85036;DHT22;75357;49.780;9.448;2024-03-02T06:33:17;4.40;89.50
85036;DHT22;75357;49.780;9.448;2024-03-02T06:35:45;4.40;89.50
85036;DHT22;75357;49.780;9.448;2024-03-02T06:38:14;4.40;89.50
85036;DHT22;75357;49.780;9.448;2024-03-02T06:40:42;4.60;89.20
85036;DHT22;75357;49.780;9.448;2024-03-02T06:43:11;4.60;89.10
85036;DHT22;75357;49.780;9.448;2024-03-02T06:45:39;4.60;88.70
85036;DHT22;75357;49.780;9.448;2024-03-02T06:48:07;4.50;89.20
85036;DHT22;75357;49.780;9.448;2024-03-02T06:50:35;4.50;89.30
85036;DHT22;75357;49.780;9.448;2024-03-02T06:53:04;4.60;89.40
85036;DHT22;75357;49.780;9.448;2024-03-02T06:55:33;4.70;89.40
85036;DHT22;75357;49.780;9.448;2024-03-02T06:58:01;4.70;89.30
85036;DHT22;75357;49.780;9.448;2024-03-02T07:00:30;4.70;89.10
85036;DHT22;75357;49.780;9.448;2024-03-02T07:02:58;4.80;89.00
85036;DHT22;75357;49.780;9.448;2024-03-02T07:05:26;4.90;89.00
85036;DHT22;75357;49.780;9.448;2024-03-02T07:07:54;5.00;88.80
85036;DHT22;75357;49.780;9.448;2024-03-02T07:10:23;5.00;88.40
85036;DHT22;75357;49.780;9.448;2024-03-02T07:12:52;5.10;88.60
85036;DHT22;75357;49.780;9.448;2024-03-02T07:15:20;5.10;88.70
85036;DHT22;75357;49.780;9.448;2024-03-02T07:18:11;5.20;88.40
85036;DHT22;75357;49.780;9.448;2024-03-02T07:20:40;5.30;88.90
85036;DHT22;75357;49.780;9.448;2024-03-02T07:23:08;5.30;88.80
85036;DHT22;75357;49.780;9.448;2024-03-02T07:25:36;5.40;88.80
85036;DHT22;75357;49.780;9.448;2024-03-02T07:28:10;5.50;88.40
85036;DHT22;75357;49.780;9.448;2024-03-02T07:30:38;5.40;88.20
85036;DHT22;75357;49.780;9.448;2024-03-02T07:33:06;5.50;88.20
85036;DHT22;75357;49.780;9.448;2024-03-02T07:35:35;5.60;88.00
85036;DHT22;75357;49.780;9.448;2024-03-02T07:38:03;5.60;87.70
85036;DHT22;75357;49.780;9.448;2024-03-02T07:40:31;5.70;87.90
85036;DHT22;75357;49.780;9.448;2024-03-02T07:42:59;5.80;87.00
85036;DHT22;75357;49.780;9.448;2024-03-02T07:45:29;5.80;87.10
85036;DHT22;75357;49.780;9.448;2024-03-02T07:47:57;5.80;87.20
85036;DHT22;75357;49.780;9.448;2024-03-02T07:50:25;5.80;87.20
85036;DHT22;75357;49.780;9.448;2024-03-02T07:52:54;5.90;86.90
85036;DHT22;75357;49.780;9.448;2024-03-02T07:55:22;6.00;86.70
85036;DHT22;75357;49.780;9.448;2024-03-02T07:57:50;6.10;86.60
85036;DHT22;75357;49.780;9.448;2024-03-02T08:00:19;6.10;86.40
85036;DHT22;75357;49.780;9.448;2024-03-02T08:02:49;6.10;86.50
85036;DHT22;75357;49.780;9.448;2024-03-02T08:05:17;6.20;86.20
85036;DHT22;75357;49.780;9.448;2024-03-02T08:07:46;6.20;86.10
85036;DHT22;75357;49.780;9.448;2024-03-02T08:10:15;6.30;85.90
85036;DHT22;75357;49.780;9.448;2024-03-02T08:12:43;6.30;85.60
85036;DHT22;75357;49.780;9.448;2024-03-02T08:15:11;6.20;85.30
85036;DHT22;75357;49.780;9.448;2024-03-02T08:17:40;6.20;85.50
85036;DHT22;75357;49.780;9.448;2024-03-02T08:20:13;6.30;85.60
85036;DHT22;75357;49.780;9.448;2024-03-02T08:22:41;6.30;85.70
85036;DHT22;75357;49.780;9.448;2024-03-02T08:25:10;6.30;86.10
85036;DHT22;75357;49.780;9.448;2024-03-02T08:27:39;6.00;86.10
85036;DHT22;75357;49.780;9.448;2024-03-02T08:30:08;6.00;87.10
85036;DHT22;75357;49.780;9.448;2024-03-02T08:32:37;6.00;87.30
85036;DHT22;75357;49.780;9.448;2024-03-02T08:35:06;5.90;87.50
85036;DHT22;75357;49.780;9.448;2024-03-02T08:37:37;6.10;87.10
85036;DHT22;75357;49.780;9.448;2024-03-02T08:40:08;6.00;86.80
85036;DHT22;75357;49.780;9.448;2024-03-02T08:42:39;6.00;87.00
85036;DHT22;75357;49.780;9.448;2024-03-02T08:45:08;6.20;87.40
85036;DHT22;75357;49.780;9.448;2024-03-02T08:47:36;6.60;86.60
85036;DHT22;75357;49.780;9.448;2024-03-02T08:50:05;7.00;85.30
85036;DHT22;75357;49.780;9.448;2024-03-02T08:52:33;7.40;84.20
85036;DHT22;75357;49.780;9.448;2024-03-02T08:55:04;7.70;83.30
85036;DHT22;75357;49.780;9.448;2024-03-02T08:57:34;7.90;82.10
85036;DHT22;75357;49.780;9.448;2024-03-02T09:00:04;8.00;81.80
85036;DHT22;75357;49.780;9.448;2024-03-02T09:02:34;8.20;81.60
85036;DHT22;75357;49.780;9.448;2024-03-02T09:05:03;8.30;81.40
85036;DHT22;75357;49.780;9.448;2024-03-02T09:07:32;8.40;80.80
85036;DHT22;75357;49.780;9.448;2024-03-02T09:10:00;8.40;80.60
85036;DHT22;75357;49.780;9.448;2024-03-02T09:12:30;8.40;80.20
85036;DHT22;75357;49.780;9.448;2024-03-02T09:14:58;8.10;80.60
85036;DHT22;75357;49.780;9.448;2024-03-02T09:17:26;8.10;81.00
85036;DHT22;75357;49.780;9.448;2024-03-02T09:19:54;8.10;81.00
85036;DHT22;75357;49.780;9.448;2024-03-02T09:22:23;8.20;80.60
85036;DHT22;75357;49.780;9.448;2024-03-02T09:24:51;8.20;80.70
85036;DHT22;75357;49.780;9.448;2024-03-02T09:27:19;8.20;80.60
85036;DHT22;75357;49.780;9.448;2024-03-02T09:29:49;8.30;80.60
85036;DHT22;75357;49.780;9.448;2024-03-02T09:32:17;8.30;81.10
85036;DHT22;75357;49.780;9.448;2024-03-02T09:34:45;8.30;80.40
85036;DHT22;75357;49.780;9.448;2024-03-02T09:37:15;8.40;80.00
85036;DHT22;75357;49.780;9.448;2024-03-02T09:39:43;8.40;80.30
85036;DHT22;75357;49.780;9.448;2024-03-02T09:42:12;8.40;80.10
85036;DHT22;75357;49.780;9.448;2024-03-02T09:44:42;8.40;79.80
85036;DHT22;75357;49.780;9.448;2024-03-02T09:47:12;8.30;79.90
85036;DHT22;75357;49.780;9.448;2024-03-02T09:49:41;8.30;80.20
85036;DHT22;75357;49.780;9.448;2024-03-02T09:52:10;8.20;80.40
85036;DHT22;75357;49.780;9.448;2024-03-02T09:54:38;8.20;80.50
85036;DHT22;75357;49.780;9.448;2024-03-02T09:57:07;8.20;81.00
85036;DHT22;75357;49.780;9.448;2024-03-02T09:59:35;8.30;80.80
85036;DHT22;75357;49.780;9.448;2024-03-02T10:02:03;8.50;80.40
85036;DHT22;75357;49.780;9.448;2024-03-02T10:04:35;8.60;79.80
85036;DHT22;75357;49.780;9.448;2024-03-02T10:07:11;8.90;79.10
85036;DHT22;75357;49.780;9.448;2024-03-02T10:09:40;9.00;79.00
85036;DHT22;75357;49.780;9.448;2024-03-02T10:12:09;9.10;78.50
85036;DHT22;75357;49.780;9.448;2024-03-02T10:14:38;9.20;78.20
85036;DHT22;75357;49.780;9.448;2024-03-02T10:17:07;9.40;78.10
85036;DHT22;75357;49.780;9.448;2024-03-02T10:19:38;9.60;77.60
85036;DHT22;75357;49.780;9.448;2024-03-02T10:22:07;9.70;77.10
85036;DHT22;75357;49.780;9.448;2024-03-02T10:24:37;9.90;76.80
85036;DHT22;75357;49.780;9.448;2024-03-02T10:27:07;10.10;75.40
85036;DHT22;75357;49.780;9.448;2024-03-02T10:29:37;10.20;74.50
85036;DHT22;75357;49.780;9.448;2024-03-02T10:32:09;10.00;74.90
85036;DHT22;75357;49.780;9.448;2024-03-02T10:34:40;9.50;78.00
85036;DHT22;75357;49.780;9.448;2024-03-02T10:37:11;9.20;79.40
85036;DHT22;75357;49.780;9.448;2024-03-02T10:39:40;9.00;79.30
85036;DHT22;75357;49.780;9.448;2024-03-02T10:42:08;9.10;80.10
85036;DHT22;75357;49.780;9.448;2024-03-02T10:44:36;9.40;79.30
85036;DHT22;75357;49.780;9.448;2024-03-02T10:47:05;9.90;77.90
85036;DHT22;75357;49.780;9.448;2024-03-02T10:49:33;10.20;75.70
85036;DHT22;75357;49.780;9.448;2024-03-02T10:52:03;10.40;75.40
85036;DHT22;75357;49.780;9.448;2024-03-02T10:54:31;10.50;74.50
85036;DHT22;75357;49.780;9.448;2024-03-02T10:57:04;10.40;74.40
85036;DHT22;75357;49.780;9.448;2024-03-02T10:59:37;10.40;75.10
85036;DHT22;75357;49.780;9.448;2024-03-02T11:02:11;10.70;74.60
85036;DHT22;75357;49.780;9.448;2024-03-02T11:04:40;10.80;74.90
85036;DHT22;75357;49.780;9.448;2024-03-02T11:07:11;11.20;73.90
85036;DHT22;75357;49.780;9.448;2024-03-02T11:09:42;11.20;72.70
85036;DHT22;75357;49.780;9.448;2024-03-02T11:12:13;11.20;72.20
85036;DHT22;75357;49.780;9.448;2024-03-02T11:14:45;11.40;72.00
85036;DHT22;75357;49.780;9.448;2024-03-02T11:17:14;11.60;71.60
85036;DHT22;75357;49.780;9.448;2024-03-02T11:19:44;11.60;71.00
85036;DHT22;75357;49.780;9.448;2024-03-02T11:22:15;11.70;70.90
85036;DHT22;75357;49.780;9.448;2024-03-02T11:24:48;11.90;69.80
85036;DHT22;75357;49.780;9.448;2024-03-02T11:27:59;11.90;69.80
85036;DHT22;75357;49.780;9.448;2024-03-02T11:30:50;12.00;69.90
85036;DHT22;75357;49.780;9.448;2024-03-02T11:33:26;12.20;68.70
85036;DHT22;75357;49.780;9.448;2024-03-02T11:35:57;12.60;67.20
85036;DHT22;75357;49.780;9.448;2024-03-02T11:38:30;12.80;66.50
85036;DHT22;75357;49.780;9.448;2024-03-02T11:41:00;12.70;66.40
85036;DHT22;75357;49.780;9.448;2024-03-02T11:43:29;12.90;66.40
85036;DHT22;75357;49.780;9.448;2024-03-02T11:45:57;12.90;65.20
85036;DHT22;75357;49.780;9.448;2024-03-02T11:48:26;12.90;65.60
85036;DHT22;75357;49.780;9.448;2024-03-02T11:50:58;13.00;64.90
85036;DHT22;75357;49.780;9.448;2024-03-02T11:53:29;13.10;64.50
85036;DHT22;75357;49.780;9.448;2024-03-02T11:56:02;13.10;64.00
85036;DHT22;75357;49.780;9.448;2024-03-02T11:58:34;13.20;64.10
85036;DHT22;75357;49.780;9.448;2024-03-02T12:01:04;13.50;63.30
85036;DHT22;75357;49.780;9.448;2024-03-02T12:03:32;13.70;62.20
85036;DHT22;75357;49.780;9.448;2024-03-02T12:06:02;13.70;62.60
85036;DHT22;75357;49.780;9.448;2024-03-02T12:08:32;13.80;61.40
85036;DHT22;75357;49.780;9.448;2024-03-02T12:11:01;14.00;61.60
85036;DHT22;75357;49.780;9.448;2024-03-02T12:13:31;14.10;60.50
85036;DHT22;75357;49.780;9.448;2024-03-02T12:16:00;14.10;60.20
85036;DHT22;75357;49.780;9.448;2024-03-02T12:18:28;14.00;59.80
85036;DHT22;75357;49.780;9.448;2024-03-02T12:20:56;14.00;59.60
85036;DHT22;75357;49.780;9.448;2024-03-02T12:23:25;13.90;60.20
85036;DHT22;75357;49.780;9.448;2024-03-02T12:25:55;14.00;60.80
85036;DHT22;75357;49.780;9.448;2024-03-02T12:28:23;14.30;59.80
85036;DHT22;75357;49.780;9.448;2024-03-02T12:30:52;14.30;60.50
85036;DHT22;75357;49.780;9.448;2024-03-02T12:33:20;14.50;59.50
85036;DHT22;75357;49.780;9.448;2024-03-02T12:35:49;14.50;58.60
85036;DHT22;75357;49.780;9.448;2024-03-02T12:38:17;14.40;57.70
85036;DHT22;75357;49.780;9.448;2024-03-02T12:40:48;14.40;57.50
85036;DHT22;75357;49.780;9.448;2024-03-02T12:43:18;14.30;57.00
85036;DHT22;75357;49.780;9.448;2024-03-02T12:45:46;14.40;57.50
85036;DHT22;75357;49.780;9.448;2024-03-02T12:48:15;14.50;57.30
85036;DHT22;75357;49.780;9.448;2024-03-02T12:50:43;14.40;57.60
85036;DHT22;75357;49.780;9.448;2024-03-02T12:53:14;14.20;58.40
85036;DHT22;75357;49.780;9.448;2024-03-02T12:55:44;14.40;58.10
85036;DHT22;75357;49.780;9.448;2024-03-02T12:58:19;14.40;58.30
85036;DHT22;75357;49.780;9.448;2024-03-02T13:00:48;14.60;57.90
85036;DHT22;75357;49.780;9.448;2024-03-02T13:03:18;14.80;56.70
85036;DHT22;75357;49.780;9.448;2024-03-02T13:05:51;14.70;56.90
85036;DHT22;75357;49.780;9.448;2024-03-02T13:08:20;14.60;56.90
85036;DHT22;75357;49.780;9.448;2024-03-02T13:10:48;14.70;58.50
85036;DHT22;75357;49.780;9.448;2024-03-02T13:13:17;14.70;58.40
85036;DHT22;75357;49.780;9.448;2024-03-02T13:15:46;14.90;58.70
85036;DHT22;75357;49.780;9.448;2024-03-02T13:18:14;15.00;57.50
85036;DHT22;75357;49.780;9.448;2024-03-02T13:20:42;14.90;56.80
85036;DHT22;75357;49.780;9.448;2024-03-02T13:23:10;14.80;57.40
85036;DHT22;75357;49.780;9.448;2024-03-02T13:25:38;15.00;56.60
85036;DHT22;75357;49.780;9.448;2024-03-02T13:28:06;14.90;56.30
85036;DHT22;75357;49.780;9.448;2024-03-02T13:30:37;14.90;56.20
85036;DHT22;75357;49.780;9.448;2024-03-02T13:33:05;15.00;56.00
85036;DHT22;75357;49.780;9.448;2024-03-02T13:35:33;15.10;56.30
85036;DHT22;75357;49.780;9.448;2024-03-02T13:38:01;15.20;55.80
85036;DHT22;75357;49.780;9.448;2024-03-02T13:40:29;15.30;55.30
85036;DHT22;75357;49.780;9.448;2024-03-02T13:43:02;15.50;55.40
85036;DHT22;75357;49.780;9.448;2024-03-02T13:45:30;15.60;55.10
85036;DHT22;75357;49.780;9.448;2024-03-02T13:48:00;15.70;53.60
85036;DHT22;75357;49.780;9.448;2024-03-02T13:50:28;15.70;53.80
85036;DHT22;75357;49.780;9.448;2024-03-02T13:52:57;15.70;54.00
85036;DHT22;75357;49.780;9.448;2024-03-02T13:55:25;15.70;52.90
85036;DHT22;75357;49.780;9.448;2024-03-02T13:57:53;15.60;52.10
85036;DHT22;75357;49.780;9.448;2024-03-02T14:00:21;15.60;52.30
85036;DHT22;75357;49.780;9.448;2024-03-02T14:02:50;15.80;53.30
85036;DHT22;75357;49.780;9.448;2024-03-02T14:05:19;15.90;52.50
85036;DHT22;75357;49.780;9.448;2024-03-02T14:07:47;16.00;52.00
85036;DHT22;75357;49.780;9.448;2024-03-02T14:10:16;16.00;50.70
85036;DHT22;75357;49.780;9.448;2024-03-02T14:12:49;16.00;51.90
85036;DHT22;75357;49.780;9.448;2024-03-02T14:15:17;16.20;51.60
85036;DHT22;75357;49.780;9.448;2024-03-02T14:17:47;16.20;51.00
85036;DHT22;75357;49.780;9.448;2024-03-02T14:20:16;16.00;50.30
85036;DHT22;75357;49.780;9.448;2024-03-02T14:22:50;16.00;51.50
85036;DHT22;75357;49.780;9.448;2024-03-02T14:25:19;16.10;50.10
85036;DHT22;75357;49.780;9.448;2024-03-02T14:27:47;16.10;51.70
85036;DHT22;75357;49.780;9.448;2024-03-02T14:30:35;16.20;50.70
85036;DHT22;75357;49.780;9.448;2024-03-02T14:33:04;16.40;49.80
85036;DHT22;75357;49.780;9.448;2024-03-02T14:35:32;16.40;49.70
85036;DHT22;75357;49.780;9.448;2024-03-02T14:38:03;16.40;49.60
85036;DHT22;75357;49.780;9.448;2024-03-02T14:40:31;16.40;48.50
85036;DHT22;75357;49.780;9.448;2024-03-02T14:42:59;16.30;47.50
85036;DHT22;75357;49.780;9.448;2024-03-02T14:45:28;16.30;48.50
85036;DHT22;75357;49.780;9.448;2024-03-02T14:47:56;16.40;47.70
85036;DHT22;75357;49.780;9.448;2024-03-02T14:50:26;16.50;46.60
85036;DHT22;75357;49.780;9.448;2024-03-02T14:52:54;16.40;46.30
85036;DHT22;75357;49.780;9.448;2024-03-02T14:55:25;16.50;46.50
85036;DHT22;75357;49.780;9.448;2024-03-02T14:57:54;16.30;45.10
85036;DHT22;75357;49.780;9.448;2024-03-02T15:00:22;16.30;46.00
85036;DHT22;75357;49.780;9.448;2024-03-02T15:02:50;16.20;45.50
85036;DHT22;75357;49.780;9.448;2024-03-02T15:05:18;16.20;44.90
85036;DHT22;75357;49.780;9.448;2024-03-02T15:07:47;16.20;44.30
85036;DHT22;75357;49.780;9.448;2024-03-02T15:10:15;16.20;43.90
85036;DHT22;75357;49.780;9.448;2024-03-02T15:12:45;16.20;44.90
85036;DHT22;75357;49.780;9.448;2024-03-02T15:15:13;16.20;44.60
85036;DHT22;75357;49.780;9.448;2024-03-02T15:17:42;16.00;44.90
85036;DHT22;75357;49.780;9.448;2024-03-02T15:20:10;16.00;44.70
85036;DHT22;75357;49.780;9.448;2024-03-02T15:22:38;15.90;44.00
85036;DHT22;75357;49.780;9.448;2024-03-02T15:25:07;15.90;44.20
85036;DHT22;75357;49.780;9.448;2024-03-02T15:27:36;15.90;44.20
85036;DHT22;75357;49.780;9.448;2024-03-02T15:30:06;15.80;44.90
85036;DHT22;75357;49.780;9.448;2024-03-02T15:32:35;15.80;45.00
85036;DHT22;75357;49.780;9.448;2024-03-02T15:35:05;15.70;45.40
85036;DHT22;75357;49.780;9.448;2024-03-02T15:37:34;15.60;45.80
85036;DHT22;75357;49.780;9.448;2024-03-02T15:40:02;15.50;46.10
85036;DHT22;75357;49.780;9.448;2024-03-02T15:42:35;15.40;45.80
85036;DHT22;75357;49.780;9.448;2024-03-02T15:45:03;15.30;47.10
85036;DHT22;75357;49.780;9.448;2024-03-02T15:47:33;15.30;47.20
85036;DHT22;75357;49.780;9.448;2024-03-02T15:50:03;15.30;47.60
85036;DHT22;75357;49.780;9.448;2024-03-02T15:52:32;15.20;48.00
85036;DHT22;75357;49.780;9.448;2024-03-02T15:55:00;15.20;48.20